Hlavní strana
METAR-TAF:

METAR-TAF

Letiště :

Magnitogorsk, Rusko

zeměpisná šířka: 53-23-36N, zeměpisná délka: 058-45-24E, výška: 436 m

Aktuální stav počasí

Zpráva byla vytvořena před 38 minutami, v 14:30 UTC
Východojihovýchodní vítr 8 kt
Teplota 8°C
Vlhkost vzduchu 39%
Tlak 1024 hPa
Viditelnost 10 km a více
Polojasno ve výšce 4000 ft

METAR: USCM 241430Z 11004MPS 9999 SCT040 08/M05 Q1024 R18/090060 NOSIG RMK QFE730

Čas: 20:08 (15:08 UTC)

Předpověď počasí

Zpráva byla vytvořena před 1 hodinou a 8 minutami, v 14:00 UTC
Předpověď platná od 24 v 15 UTC do 24 v 24 UTC
Jihovýchodní vítr 6 kt s nárazy do 19 kt
Viditelnost: 6000 m
Polojasno ve výšce 3000 ft
Dočasný
od 24 v 15 UTC do 24 v 24 UTC
Východní vítr 6 kt s nárazy do 16 kt

TAF: USCM 241400Z 2415/2424 13003G10MPS 6000 SCT030 TEMPO 2415/2424 10003G08MPS

Stav a předpovědi počasí z více než 4 000 letišť (zprávy METAR a TAF).

Červené a žluté tečky na mapě představují dostupné meteorologické stanice.

Když kurzor umístíte na tečku, zobrazí se název stanice.

Pak kliknutím zobrazíte stav a předpověď počasí.

Chcete-li změnit mapu, kliknutím na zelené tlačítko se znaménkem +mapu přiblížíte, kliknutím na zelené tlačítko se znaménkem – mapu oddálíte a kliknutím na zelené šipky přejdete na sousední mapy.


METAR-TAF: